Time;durP1;ratioP1;P1;durP2;ratioP2;P2;SDS_P1;SDS_P2;PMS_P1;PMS_P2;Temp;Humidity;BMP_temperature;BMP_pressure;BME280_temperature;BME280_humidity;BME280_pressure;Samples;Min_cycle;Max_cycle;Signal;HPM_P1;HPM_P2
2024/01/29 00:01:52;;;;;;;5.35;3.60;;;11.20;93.10;;;;;;5014094;28;20057;-43
2024/01/29 00:04:17;;;;;;;5.35;3.42;;;11.20;93.10;;;;;;5014426;28;20030;-44
2024/01/29 00:06:43;;;;;;;5.60;3.40;;;11.20;93.20;;;;;;5014522;28;20476;-43
2024/01/29 00:09:08;;;;;;;5.35;3.58;;;11.10;93.20;;;;;;5014365;28;20029;-43
2024/01/29 00:11:34;;;;;;;4.65;2.90;;;11.10;93.30;;;;;;5014536;28;20362;-43
2024/01/29 00:14:00;;;;;;;6.35;3.53;;;11.10;93.20;;;;;;5014129;28;20026;-43
2024/01/29 00:16:26;;;;;;;4.78;3.22;;;11.10;93.30;;;;;;5014127;28;20014;-43
2024/01/29 00:18:51;;;;;;;5.93;3.67;;;11.00;93.30;;;;;;5013613;28;20022;-43
2024/01/29 00:21:17;;;;;;;4.25;3.20;;;11.00;93.40;;;;;;5014252;28;20029;-39
2024/01/29 00:23:42;;;;;;;6.30;3.55;;;11.00;93.40;;;;;;5013548;28;20044;-43
2024/01/29 00:26:08;;;;;;;4.72;3.30;;;11.00;93.50;;;;;;5013445;28;20042;-43
2024/01/29 00:28:34;;;;;;;4.53;3.25;;;10.90;93.50;;;;;;5013566;28;20607;-43
2024/01/29 00:31:00;;;;;;;5.53;3.45;;;10.90;93.40;;;;;;5013988;28;20431;-43
2024/01/29 00:33:25;;;;;;;5.65;3.50;;;10.90;93.50;;;;;;5013085;28;20518;-43
2024/01/29 00:35:51;;;;;;;6.00;3.10;;;10.90;93.50;;;;;;5013556;28;20316;-40
2024/01/29 00:38:16;;;;;;;4.97;3.28;;;10.90;93.60;;;;;;5013058;28;20029;-39
2024/01/29 00:40:42;;;;;;;5.75;3.20;;;10.80;93.60;;;;;;5013272;28;20022;-43
2024/01/29 00:43:08;;;;;;;4.63;3.10;;;10.80;93.60;;;;;;5013132;28;20424;-40
2024/01/29 00:45:33;;;;;;;4.80;3.20;;;10.80;93.70;;;;;;5011741;28;20026;-41
2024/01/29 00:47:59;;;;;;;6.10;3.03;;;10.80;93.70;;;;;;5012380;28;20026;-43
2024/01/29 00:50:25;;;;;;;5.43;3.38;;;10.80;93.80;;;;;;5013520;28;20551;-44
2024/01/29 00:52:50;;;;;;;4.43;2.80;;;10.70;93.70;;;;;;5013167;28;20084;-44
2024/01/29 00:55:16;;;;;;;4.20;2.90;;;10.70;93.80;;;;;;5014028;28;20065;-44
2024/01/29 00:57:42;;;;;;;4.88;3.28;;;10.70;93.80;;;;;;5013361;28;20080;-41
2024/01/29 01:00:09;;;;;;;4.65;3.00;;;10.70;93.90;;;;;;5012524;28;20037;-45
2024/01/29 01:02:35;;;;;;;5.50;3.08;;;10.70;93.90;;;;;;5013249;28;20049;-43
2024/01/29 01:05:01;;;;;;;4.55;2.90;;;10.70;93.90;;;;;;5012946;28;20068;-42
2024/01/29 01:07:27;;;;;;;4.13;3.05;;;10.60;93.90;;;;;;5013093;28;20052;-43
2024/01/29 01:09:53;;;;;;;5.30;3.30;;;10.60;94.00;;;;;;5013494;28;20396;-44
2024/01/29 01:12:19;;;;;;;4.30;3.20;;;10.60;94.00;;;;;;5013367;28;20022;-44
2024/01/29 01:14:45;;;;;;;8.52;4.03;;;10.60;94.00;;;;;;5012947;28;20041;-44
2024/01/29 01:17:10;;;;;;;4.80;3.00;;;10.50;94.10;;;;;;5012739;28;20026;-44
2024/01/29 01:19:36;;;;;;;4.45;2.88;;;10.50;94.10;;;;;;5012311;28;20499;-44
2024/01/29 01:22:02;;;;;;;4.60;3.03;;;10.50;94.10;;;;;;5012444;28;20491;-45
2024/01/29 01:24:27;;;;;;;3.80;2.70;;;10.50;94.10;;;;;;5012740;28;20117;-40
2024/01/29 01:26:53;;;;;;;3.65;2.90;;;10.50;94.20;;;;;;5013313;28;20034;-45
2024/01/29 01:29:19;;;;;;;4.57;3.00;;;10.50;94.20;;;;;;5011967;28;20037;-41
2024/01/29 01:31:44;;;;;;;4.03;3.10;;;10.50;94.20;;;;;;5012052;28;20030;-39
2024/01/29 01:34:10;;;;;;;5.97;3.45;;;10.50;94.20;;;;;;5011997;28;20033;-41
2024/01/29 01:36:35;;;;;;;4.55;2.90;;;10.40;94.30;;;;;;5011930;28;20025;-44
2024/01/29 01:39:01;;;;;;;3.50;2.53;;;10.40;94.30;;;;;;5012122;28;20053;-45
2024/01/29 01:41:27;;;;;;;4.15;2.90;;;10.40;94.30;;;;;;5013283;28;20049;-44
2024/01/29 01:43:52;;;;;;;4.05;2.80;;;10.40;94.30;;;;;;5012006;28;20026;-44
2024/01/29 01:46:21;;;;;;;3.72;2.60;;;10.40;94.30;;;;;;5012514;28;20030;-42
2024/01/29 01:48:51;;;;;;;4.13;2.60;;;10.40;94.40;;;;;;5011663;28;20034;-41
2024/01/29 01:51:18;;;;;;;4.93;2.97;;;10.40;94.40;;;;;;5012009;28;20018;-44
2024/01/29 01:53:45;;;;;;;5.10;2.90;;;10.30;94.40;;;;;;5011887;28;20049;-44
2024/01/29 01:56:12;;;;;;;4.47;2.80;;;10.30;94.40;;;;;;5011911;28;20030;-44
2024/01/29 01:58:40;;;;;;;4.40;2.75;;;10.30;94.40;;;;;;5010926;28;20562;-41
2024/01/29 02:01:06;;;;;;;4.18;2.80;;;10.30;94.50;;;;;;5012098;28;20033;-43
2024/01/29 02:03:32;;;;;;;3.53;2.78;;;10.30;94.50;;;;;;5012001;28;20022;-42
2024/01/29 02:05:58;;;;;;;4.50;2.60;;;10.30;94.50;;;;;;5011679;28;20030;-44
2024/01/29 02:08:24;;;;;;;4.38;3.00;;;10.30;94.50;;;;;;5011705;28;20029;-44
2024/01/29 02:10:50;;;;;;;4.07;2.60;;;10.20;94.50;;;;;;5011591;28;20025;-44
2024/01/29 02:13:16;;;;;;;4.38;2.65;;;10.20;94.50;;;;;;5011432;28;20113;-44
2024/01/29 02:15:42;;;;;;;3.80;2.55;;;10.20;94.50;;;;;;5011391;28;20125;-44
2024/01/29 02:18:08;;;;;;;4.10;2.30;;;10.20;94.60;;;;;;5012156;28;20045;-43
2024/01/29 02:20:37;;;;;;;3.05;2.50;;;10.20;94.60;;;;;;5011727;28;20029;-44
2024/01/29 02:23:03;;;;;;;4.15;2.55;;;10.20;94.60;;;;;;5011395;28;20064;-43
2024/01/29 02:25:29;;;;;;;3.78;2.67;;;10.20;94.60;;;;;;5011333;28;20099;-45
2024/01/29 02:27:55;;;;;;;4.10;2.72;;;10.10;94.60;;;;;;5011304;28;20022;-37
2024/01/29 02:30:20;;;;;;;4.70;3.00;;;10.10;94.60;;;;;;5011509;28;20022;-43
2024/01/29 02:32:46;;;;;;;4.00;2.58;;;10.20;94.60;;;;;;5011528;28;20508;-43
2024/01/29 02:35:12;;;;;;;4.28;2.30;;;10.10;94.60;;;;;;5011755;28;20030;-44
2024/01/29 02:37:37;;;;;;;3.10;2.30;;;10.10;94.70;;;;;;5012295;28;20045;-40
2024/01/29 02:40:06;;;;;;;3.30;2.53;;;10.10;94.70;;;;;;5011221;28;20061;-44
2024/01/29 02:42:32;;;;;;;3.28;2.30;;;10.10;94.70;;;;;;5011256;28;20097;-44
2024/01/29 02:44:58;;;;;;;3.35;2.22;;;10.10;94.70;;;;;;5011703;28;20113;-39
2024/01/29 02:47:23;;;;;;;3.58;2.17;;;10.10;94.70;;;;;;5011506;28;20396;-44
2024/01/29 02:49:49;;;;;;;3.60;2.33;;;10.10;94.80;;;;;;5011927;28;20030;-40
2024/01/29 02:52:16;;;;;;;3.22;2.28;;;10.00;94.80;;;;;;5012367;28;20018;-42
2024/01/29 02:54:41;;;;;;;4.00;2.00;;;10.00;94.80;;;;;;5011046;28;20018;-44
2024/01/29 02:57:07;;;;;;;2.88;2.25;;;10.00;94.80;;;;;;5011738;28;20118;-43
2024/01/29 02:59:33;;;;;;;4.05;2.20;;;10.00;94.80;;;;;;5011063;28;20054;-44
2024/01/29 03:01:59;;;;;;;4.13;2.30;;;10.00;94.80;;;;;;5011348;28;20057;-43
2024/01/29 03:04:25;;;;;;;2.75;2.00;;;10.00;94.80;;;;;;5010965;28;20026;-42
2024/01/29 03:06:51;;;;;;;3.80;2.22;;;10.00;94.80;;;;;;5010937;28;20112;-42
2024/01/29 03:09:17;;;;;;;3.05;2.08;;;10.00;94.90;;;;;;5011079;28;20034;-43
2024/01/29 03:11:43;;;;;;;2.88;2.22;;;10.00;94.90;;;;;;5015041;28;20056;-45
2024/01/29 03:14:08;;;;;;;3.28;1.90;;;10.00;94.90;;;;;;5014396;28;20472;-40
2024/01/29 03:16:34;;;;;;;3.15;2.13;;;10.00;94.90;;;;;;5014825;28;20113;-43
2024/01/29 03:19:00;;;;;;;2.85;2.15;;;10.00;94.90;;;;;;5014600;28;20041;-44
2024/01/29 03:21:28;;;;;;;2.70;1.92;;;10.00;94.90;;;;;;5013470;28;20030;-43
2024/01/29 03:23:55;;;;;;;3.13;2.20;;;10.00;94.90;;;;;;5014705;28;20042;-41
2024/01/29 03:26:22;;;;;;;3.80;2.20;;;9.90;95.00;;;;;;5015412;28;20026;-44
2024/01/29 03:28:47;;;;;;;2.55;1.77;;;9.90;95.00;;;;;;5015368;28;20041;-43
2024/01/29 03:31:13;;;;;;;3.53;2.05;;;9.90;95.00;;;;;;5014302;28;20026;-38
2024/01/29 03:33:39;;;;;;;3.17;2.10;;;9.90;95.00;;;;;;5014157;28;20369;-40
2024/01/29 03:36:06;;;;;;;2.95;2.10;;;9.90;95.00;;;;;;5014541;28;20025;-44
2024/01/29 03:38:32;;;;;;;3.80;2.00;;;9.90;95.00;;;;;;5015318;28;20034;-45
2024/01/29 03:41:00;;;;;;;2.35;1.85;;;9.90;95.00;;;;;;5014920;28;20026;-41
2024/01/29 03:43:26;;;;;;;2.65;1.70;;;9.90;95.00;;;;;;5014471;28;20030;-44
2024/01/29 03:45:53;;;;;;;3.03;2.10;;;9.90;95.00;;;;;;5014185;28;20049;-43
2024/01/29 03:48:20;;;;;;;2.35;1.70;;;9.90;95.10;;;;;;5014237;28;20432;-44
2024/01/29 03:50:46;;;;;;;2.67;1.98;;;9.90;95.10;;;;;;5013909;28;20022;-44
2024/01/29 03:53:12;;;;;;;3.13;1.80;;;9.90;95.10;;;;;;5014557;28;20025;-44
2024/01/29 03:55:37;;;;;;;2.92;2.00;;;9.80;95.10;;;;;;5013796;28;20449;-44
2024/01/29 03:58:03;;;;;;;3.47;1.88;;;9.80;95.10;;;;;;5013906;28;20527;-39
2024/01/29 04:00:30;;;;;;;2.85;2.00;;;9.80;95.10;;;;;;5013825;28;20492;-39
2024/01/29 04:02:57;;;;;;;3.10;1.65;;;9.80;95.10;;;;;;5014493;28;20041;-42
2024/01/29 04:05:22;;;;;;;3.00;1.83;;;9.80;95.10;;;;;;5014518;28;20033;-43
2024/01/29 04:07:48;;;;;;;2.67;1.80;;;9.80;95.10;;;;;;5014540;28;20036;-44
2024/01/29 04:10:15;;;;;;;3.75;1.90;;;9.80;95.10;;;;;;5013511;28;20369;-45
2024/01/29 04:12:41;;;;;;;3.20;1.92;;;9.80;95.20;;;;;;5013832;28;20022;-45
2024/01/29 04:15:07;;;;;;;1.88;1.50;;;9.80;95.20;;;;;;5013992;28;20048;-43
2024/01/29 04:17:33;;;;;;;1.80;1.58;;;9.70;95.20;;;;;;5014599;28;20025;-43
2024/01/29 04:19:59;;;;;;;2.55;1.88;;;9.70;95.20;;;;;;5013272;28;20045;-44
2024/01/29 04:22:25;;;;;;;2.72;1.80;;;9.70;95.20;;;;;;5012605;28;20077;-43
2024/01/29 04:24:51;;;;;;;2.50;1.50;;;9.70;95.20;;;;;;5013629;28;20026;-42
2024/01/29 04:27:17;;;;;;;2.40;1.75;;;9.70;95.20;;;;;;5013187;28;20032;-40
2024/01/29 04:29:43;;;;;;;3.08;1.80;;;9.70;95.20;;;;;;5011708;28;20636;-43
2024/01/29 04:32:09;;;;;;;2.42;1.70;;;9.70;95.20;;;;;;5013121;28;20037;-44
2024/01/29 04:34:35;;;;;;;2.60;1.70;;;9.70;95.20;;;;;;5012977;28;20018;-40
2024/01/29 04:37:00;;;;;;;2.58;1.70;;;9.70;95.20;;;;;;5011697;28;20053;-43
2024/01/29 04:39:26;;;;;;;2.15;1.60;;;9.70;95.30;;;;;;5012897;28;20105;-44
2024/01/29 04:41:52;;;;;;;2.70;1.77;;;9.70;95.30;;;;;;5012938;28;20108;-44
2024/01/29 04:44:18;;;;;;;2.35;1.77;;;9.70;95.30;;;;;;5012685;28;20042;-45
2024/01/29 04:46:43;;;;;;;2.50;1.73;;;9.60;95.30;;;;;;5012761;28;20036;-43
2024/01/29 04:49:09;;;;;;;2.30;1.60;;;9.70;95.30;;;;;;5014008;28;20069;-44
2024/01/29 04:51:35;;;;;;;2.67;1.50;;;9.70;95.30;;;;;;5012843;28;20038;-44
2024/01/29 04:54:00;;;;;;;2.80;1.63;;;9.70;95.30;;;;;;5013005;28;20030;-44
2024/01/29 04:56:26;;;;;;;3.75;1.88;;;9.70;95.30;;;;;;5013173;28;20490;-44
2024/01/29 04:58:52;;;;;;;2.28;1.50;;;9.60;95.30;;;;;;5012918;28;20060;-39
2024/01/29 05:01:17;;;;;;;3.08;1.67;;;9.60;95.30;;;;;;5013880;28;20038;-45
2024/01/29 05:03:43;;;;;;;2.30;1.67;;;9.60;95.30;;;;;;5013342;28;20033;-44
2024/01/29 05:06:09;;;;;;;2.25;1.58;;;9.60;95.70;;;;;;5012539;28;20039;-44
2024/01/29 05:08:35;;;;;;;2.20;1.55;;;9.60;95.30;;;;;;5013012;28;20030;-41
2024/01/29 05:11:01;;;;;;;2.55;1.63;;;9.60;95.70;;;;;;5013342;28;20495;-44
2024/01/29 05:13:26;;;;;;;2.85;1.63;;;9.60;95.40;;;;;;5012608;28;20404;-38
2024/01/29 05:15:52;;;;;;;3.20;1.55;;;9.60;95.40;;;;;;5013917;28;20476;-44
2024/01/29 05:18:18;;;;;;;2.17;1.60;;;9.60;95.40;;;;;;5012120;28;20113;-41
2024/01/29 05:20:43;;;;;;;1.88;1.50;;;9.60;95.40;;;;;;5012557;28;20476;-44
2024/01/29 05:23:09;;;;;;;1.90;1.52;;;9.60;95.40;;;;;;5012703;28;20040;-44
2024/01/29 05:25:35;;;;;;;2.38;1.50;;;9.60;95.40;;;;;;5012811;28;20100;-44
2024/01/29 05:28:00;;;;;;;2.40;1.42;;;9.60;95.40;;;;;;5012445;28;20053;-43
2024/01/29 05:30:26;;;;;;;2.25;1.50;;;9.60;95.40;;;;;;5012395;28;20041;-44
2024/01/29 05:32:52;;;;;;;2.63;1.52;;;9.60;95.40;;;;;;5011894;28;20472;-43
2024/01/29 05:35:18;;;;;;;2.95;1.77;;;9.60;95.40;;;;;;5012728;28;20026;-44
2024/01/29 05:37:43;;;;;;;2.53;1.60;;;9.50;95.40;;;;;;5012946;28;20026;-44
2024/01/29 05:40:11;;;;;;;1.98;1.60;;;9.50;95.40;;;;;;5012444;28;20472;-38
2024/01/29 05:42:37;;;;;;;2.08;1.48;;;9.50;95.40;;;;;;5012002;28;20022;-45
2024/01/29 05:45:03;;;;;;;3.20;2.22;;;9.50;95.50;;;;;;5011995;28;20095;-44
2024/01/29 05:47:29;;;;;;;3.80;2.40;;;9.50;94.70;;;;;;5011710;28;20037;-43
2024/01/29 05:49:54;;;;;;;2.78;2.17;;;9.50;94.00;;;;;;5011634;28;20388;-45
2024/01/29 05:52:20;;;;;;;4.22;2.60;;;9.40;93.90;;;;;;5012071;28;20025;-42
2024/01/29 05:54:46;;;;;;;3.38;2.30;;;9.40;94.00;;;;;;5011730;28;20073;-42
2024/01/29 05:57:11;;;;;;;6.63;2.45;;;9.40;94.10;;;;;;5011539;28;20033;-44
2024/01/29 05:59:41;;;;;;;3.80;2.38;;;9.30;94.20;;;;;;5012358;28;20057;-43
2024/01/29 06:02:06;;;;;;;3.70;2.30;;;9.30;94.20;;;;;;5011642;28;20026;-45
2024/01/29 06:04:32;;;;;;;3.47;2.17;;;9.30;94.30;;;;;;5011622;28;20044;-45
2024/01/29 06:06:58;;;;;;;3.95;2.45;;;9.30;94.40;;;;;;5011719;28;20037;-45
2024/01/29 06:09:24;;;;;;;4.47;2.63;;;9.30;94.40;;;;;;5011434;28;20388;-45
2024/01/29 06:11:50;;;;;;;2.90;2.13;;;9.30;94.50;;;;;;5011448;28;20057;-44
2024/01/29 06:14:16;;;;;;;4.80;2.60;;;9.30;94.50;;;;;;5011179;28;20030;-45
2024/01/29 06:16:43;;;;;;;3.90;2.25;;;9.30;94.50;;;;;;5012734;28;20491;-45
2024/01/29 06:19:14;;;;;;;3.20;2.22;;;9.30;94.60;;;;;;5011394;28;20503;-45
2024/01/29 06:21:40;;;;;;;2.80;2.17;;;9.30;95.00;;;;;;5011513;28;20037;-45
2024/01/29 06:24:06;;;;;;;3.05;2.20;;;9.30;94.60;;;;;;5011270;28;20030;-45
2024/01/29 06:26:33;;;;;;;7.45;2.40;;;9.30;94.70;;;;;;5011542;28;20022;-45
2024/01/29 06:28:58;;;;;;;4.00;2.63;;;9.30;94.70;;;;;;5011254;28;20033;-41
2024/01/29 06:31:24;;;;;;;3.45;2.13;;;9.30;94.70;;;;;;5011400;28;20021;-45
2024/01/29 06:33:53;;;;;;;2.60;1.90;;;9.30;94.70;;;;;;5011400;28;20040;-45
2024/01/29 06:36:19;;;;;;;2.13;1.83;;;9.30;94.80;;;;;;5011512;28;20026;-43
2024/01/29 06:38:45;;;;;;;3.00;2.08;;;9.30;94.80;;;;;;5011299;28;20439;-45
2024/01/29 06:41:24;;;;;;;3.90;2.40;;;9.30;94.80;;;;;;5011403;28;20026;-45
2024/01/29 06:43:50;;;;;;;3.95;2.45;;;9.30;94.80;;;;;;5011231;28;20057;-45
2024/01/29 06:46:16;;;;;;;5.35;2.50;;;9.30;94.90;;;;;;5014811;28;20123;-45
2024/01/29 06:48:41;;;;;;;2.95;2.20;;;9.30;94.90;;;;;;5014976;28;20025;-45
2024/01/29 06:51:07;;;;;;;4.40;2.60;;;9.30;94.90;;;;;;5015029;28;20550;-44
2024/01/29 06:53:34;;;;;;;4.13;2.35;;;9.30;94.90;;;;;;5014927;28;20030;-43
2024/01/29 06:56:02;;;;;;;3.65;2.30;;;9.30;95.00;;;;;;5015008;28;20029;-45
2024/01/29 06:58:28;;;;;;;3.35;2.50;;;9.30;95.00;;;;;;5014754;28;20084;-45
2024/01/29 07:00:54;;;;;;;5.20;2.70;;;9.30;95.10;;;;;;5014770;28;20022;-45
2024/01/29 07:03:21;;;;;;;3.58;2.28;;;9.30;95.10;;;;;;5014821;28;20026;-43
2024/01/29 07:05:48;;;;;;;3.17;2.15;;;9.30;95.20;;;;;;5014986;28;20096;-45
2024/01/29 07:08:13;;;;;;;2.92;2.13;;;9.30;95.20;;;;;;5014788;28;20436;-45
2024/01/29 07:10:39;;;;;;;5.00;2.20;;;9.30;95.30;;;;;;5014838;28;20110;-44
2024/01/29 07:13:05;;;;;;;2.92;2.17;;;9.30;95.30;;;;;;5014441;28;20028;-44
2024/01/29 07:15:31;;;;;;;2.53;1.80;;;9.30;95.30;;;;;;5014663;28;20026;-43
2024/01/29 07:17:57;;;;;;;3.47;2.20;;;9.40;95.40;;;;;;5014678;28;20222;-45
2024/01/29 07:20:22;;;;;;;3.45;2.03;;;9.40;95.40;;;;;;5014444;28;20038;-45
2024/01/29 07:22:48;;;;;;;3.58;2.30;;;9.40;95.40;;;;;;5014448;28;20037;-44
2024/01/29 07:25:14;;;;;;;3.78;2.30;;;9.50;95.30;;;;;;5014145;28;20491;-45
2024/01/29 07:27:39;;;;;;;3.70;2.45;;;9.50;95.30;;;;;;5014162;28;20050;-45
2024/01/29 07:30:05;;;;;;;2.92;1.90;;;9.60;95.30;;;;;;5014145;28;20092;-45
2024/01/29 07:32:31;;;;;;;3.80;2.20;;;9.70;95.30;;;;;;5014359;28;20549;-45
2024/01/29 07:35:00;;;;;;;4.60;2.45;;;9.70;95.20;;;;;;5014926;28;20093;-42
2024/01/29 07:37:27;;;;;;;3.15;2.08;;;9.70;95.10;;;;;;5014182;28;20022;-42
2024/01/29 07:39:53;;;;;;;2.60;1.83;;;9.80;95.10;;;;;;5012776;28;20076;-41
2024/01/29 07:42:19;;;;;;;3.55;2.10;;;9.90;95.00;;;;;;5014069;28;20030;-45
2024/01/29 07:44:45;;;;;;;3.63;2.13;;;10.00;95.30;;;;;;5013931;28;20547;-45
2024/01/29 07:47:11;;;;;;;3.03;2.13;;;10.00;94.90;;;;;;5014198;28;20032;-41
2024/01/29 07:49:36;;;;;;;3.08;2.08;;;10.10;94.80;;;;;;5013956;28;20041;-45
2024/01/29 07:52:03;;;;;;;3.65;2.00;;;10.20;94.70;;;;;;5014247;28;20018;-45
2024/01/29 07:54:29;;;;;;;3.13;2.17;;;10.30;94.70;;;;;;5014287;28;20022;-45
2024/01/29 07:56:54;;;;;;;4.43;2.20;;;10.30;94.60;;;;;;5013588;28;20546;-43
2024/01/29 07:59:20;;;;;;;3.50;2.20;;;10.40;94.50;;;;;;5013676;28;20033;-45
2024/01/29 08:01:46;;;;;;;2.47;1.88;;;10.50;94.50;;;;;;5014474;28;20101;-44
2024/01/29 08:04:12;;;;;;;4.45;2.00;;;10.60;94.40;;;;;;5013805;28;20022;-42
2024/01/29 08:06:37;;;;;;;3.10;1.92;;;10.70;94.30;;;;;;5013572;28;20030;-42
2024/01/29 08:09:06;;;;;;;3.33;2.20;;;10.80;94.30;;;;;;5013446;28;20033;-43
2024/01/29 08:11:33;;;;;;;2.40;1.83;;;10.90;94.20;;;;;;5014328;28;20014;-43
2024/01/29 08:13:58;;;;;;;2.80;1.70;;;10.90;94.10;;;;;;5014447;28;20369;-45
2024/01/29 08:16:26;;;;;;;2.70;2.03;;;11.10;94.00;;;;;;5012041;28;20029;-44
2024/01/29 08:18:51;;;;;;;3.83;2.30;;;11.10;93.90;;;;;;5014715;28;20040;-44
2024/01/29 08:21:17;;;;;;;3.13;2.05;;;11.30;93.80;;;;;;5012557;28;20029;-45
2024/01/29 08:23:43;;;;;;;3.10;2.10;;;11.40;93.70;;;;;;5013039;28;20069;-45
2024/01/29 08:26:09;;;;;;;3.83;1.88;;;11.50;93.60;;;;;;5014476;28;20105;-44
2024/01/29 08:28:35;;;;;;;5.78;3.00;;;11.50;93.50;;;;;;5013117;28;20113;-45
2024/01/29 08:31:01;;;;;;;6.35;3.35;;;11.70;92.70;;;;;;5013203;28;20037;-45
2024/01/29 08:33:28;;;;;;;4.80;2.83;;;11.70;92.10;;;;;;5013154;28;20544;-45
2024/01/29 08:35:55;;;;;;;8.18;3.20;;;11.70;91.90;;;;;;5013155;28;20025;-46
2024/01/29 08:38:20;;;;;;;6.35;3.45;;;11.80;91.80;;;;;;5012805;28;20025;-45
2024/01/29 08:40:46;;;;;;;5.05;3.38;;;11.90;91.70;;;;;;5013261;28;20376;-46
2024/01/29 08:43:12;;;;;;;5.88;2.80;;;12.00;91.60;;;;;;5013204;28;20029;-46
2024/01/29 08:45:37;;;;;;;5.53;3.15;;;12.10;91.60;;;;;;5012861;28;20113;-46
2024/01/29 08:48:04;;;;;;;5.82;3.35;;;12.20;91.50;;;;;;5013251;28;20025;-46
2024/01/29 08:50:34;;;;;;;4.93;3.25;;;12.30;91.50;;;;;;5013161;28;20018;-46
2024/01/29 08:53:00;;;;;;;4.60;3.00;;;12.40;91.40;;;;;;5012713;28;20018;-46
2024/01/29 08:55:25;;;;;;;4.70;2.90;;;12.50;91.70;;;;;;5012672;28;20101;-45
2024/01/29 08:57:52;;;;;;;3.85;2.70;;;12.60;91.30;;;;;;5012991;28;20097;-47
2024/01/29 09:00:18;;;;;;;4.90;3.03;;;12.60;91.20;;;;;;5013491;28;20072;-46
2024/01/29 09:02:45;;;;;;;4.82;3.15;;;12.80;91.20;;;;;;5008992;28;20046;-47
2024/01/29 09:05:11;;;;;;;5.00;2.90;;;12.90;91.10;;;;;;5012586;28;20022;-46
2024/01/29 09:07:36;;;;;;;4.30;2.63;;;13.00;91.00;;;;;;5011837;28;20498;-46
2024/01/29 09:10:03;;;;;;;4.65;2.42;;;13.10;91.00;;;;;;5012984;28;20128;-45
2024/01/29 09:12:28;;;;;;;4.35;2.85;;;13.20;90.90;;;;;;5012673;28;20384;-46
2024/01/29 09:14:54;;;;;;;3.58;2.35;;;13.30;90.80;;;;;;5012202;28;20053;-46
2024/01/29 09:17:20;;;;;;;4.88;2.70;;;13.40;90.70;;;;;;5012166;28;20022;-46
2024/01/29 09:19:45;;;;;;;3.80;2.72;;;13.50;90.60;;;;;;5012316;28;20032;-46
2024/01/29 09:22:12;;;;;;;4.13;2.65;;;13.60;90.50;;;;;;5013123;28;20022;-46
2024/01/29 09:24:37;;;;;;;4.88;2.75;;;13.70;90.40;;;;;;5012441;28;20128;-46
2024/01/29 09:27:03;;;;;;;3.75;2.70;;;13.80;90.40;;;;;;5012099;28;20064;-45
2024/01/29 09:29:29;;;;;;;4.32;2.65;;;13.90;90.30;;;;;;5012640;28;20176;-47
2024/01/29 09:31:54;;;;;;;3.13;2.28;;;14.00;90.20;;;;;;5011973;28;20539;-46
2024/01/29 09:34:22;;;;;;;4.65;2.72;;;14.10;90.10;;;;;;5012254;28;20072;-45
2024/01/29 09:36:48;;;;;;;4.63;2.65;;;14.20;90.00;;;;;;5012785;28;20500;-47
2024/01/29 09:39:13;;;;;;;3.90;2.47;;;14.30;89.90;;;;;;5012059;28;20129;-46
2024/01/29 09:41:39;;;;;;;4.22;2.58;;;14.40;89.70;;;;;;5012464;28;20021;-46
2024/01/29 09:44:07;;;;;;;4.32;2.70;;;14.50;89.50;;;;;;5012342;28;20037;-46
2024/01/29 09:46:40;;;;;;;4.75;2.60;;;14.70;89.40;;;;;;5011780;28;20036;-46
2024/01/29 09:49:07;;;;;;;4.57;2.50;;;14.70;89.10;;;;;;5014403;28;20034;-46
2024/01/29 09:51:34;;;;;;;4.10;2.55;;;14.80;88.90;;;;;;5011880;28;20037;-46
2024/01/29 09:54:01;;;;;;;5.28;2.80;;;14.90;88.80;;;;;;5013238;28;20099;-46
2024/01/29 09:56:28;;;;;;;4.75;2.55;;;15.00;88.70;;;;;;5012732;28;20441;-45
2024/01/29 09:58:54;;;;;;;3.55;2.38;;;15.10;88.40;;;;;;5012151;28;20084;-46
2024/01/29 10:01:21;;;;;;;3.60;2.40;;;15.20;88.20;;;;;;5011898;28;20399;-45
2024/01/29 10:03:47;;;;;;;3.60;2.38;;;15.30;88.10;;;;;;5012593;28;20040;-46
2024/01/29 10:06:12;;;;;;;3.88;2.35;;;15.30;87.80;;;;;;5011785;28;20109;-47
2024/01/29 10:08:39;;;;;;;3.88;2.47;;;15.40;87.70;;;;;;5011501;28;20491;-46
2024/01/29 10:11:05;;;;;;;3.50;2.17;;;15.50;87.50;;;;;;5012421;28;20022;-45
2024/01/29 10:13:31;;;;;;;3.40;2.22;;;15.60;87.30;;;;;;5011985;28;20018;-46
2024/01/29 10:15:57;;;;;;;3.10;2.20;;;15.70;87.20;;;;;;5012837;28;20025;-46
2024/01/29 10:18:23;;;;;;;3.05;2.20;;;15.70;87.10;;;;;;5013179;28;20523;-47
2024/01/29 10:21:03;;;;;;;3.15;2.22;;;15.80;86.90;;;;;;5013894;28;20026;-46
2024/01/29 10:23:29;;;;;;;3.70;2.30;;;15.90;86.70;;;;;;5016289;28;20120;-45
2024/01/29 10:25:58;;;;;;;3.60;2.17;;;16.00;86.60;;;;;;5020154;28;20112;-46
2024/01/29 10:28:26;;;;;;;3.40;2.03;;;16.00;86.40;;;;;;5016379;28;20109;-46
2024/01/29 10:30:54;;;;;;;3.20;2.30;;;16.10;86.20;;;;;;5016227;28;20025;-46
2024/01/29 10:33:21;;;;;;;3.40;2.35;;;16.20;86.10;;;;;;5015469;28;20415;-47
2024/01/29 10:35:47;;;;;;;4.78;2.15;;;16.30;85.90;;;;;;5015768;28;20531;-46
2024/01/29 10:38:17;;;;;;;3.53;2.35;;;16.40;85.80;;;;;;5015845;28;20030;-46
2024/01/29 10:40:44;;;;;;;3.90;2.10;;;16.40;85.60;;;;;;5015181;28;20029;-46
2024/01/29 10:43:18;;;;;;;3.15;2.28;;;16.50;85.40;;;;;;5015227;28;20057;-46
2024/01/29 10:45:47;;;;;;;3.47;2.40;;;16.60;85.30;;;;;;5015220;28;20025;-45
2024/01/29 10:48:19;;;;;;;3.70;2.38;;;16.60;85.10;;;;;;5014987;28;20113;-45
2024/01/29 10:50:47;;;;;;;3.25;2.20;;;16.70;84.90;;;;;;5015434;28;20499;-46
2024/01/29 10:53:17;;;;;;;3.40;2.10;;;16.80;84.80;;;;;;5015063;28;20615;-47
2024/01/29 10:55:44;;;;;;;3.15;2.05;;;16.90;84.70;;;;;;5016061;28;20025;-46
2024/01/29 10:58:15;;;;;;;4.47;2.22;;;16.90;84.50;;;;;;5014872;28;20033;-46
2024/01/29 11:00:42;;;;;;;3.95;2.35;;;17.00;85.10;;;;;;5015494;28;20026;-46
2024/01/29 11:03:10;;;;;;;3.35;2.25;;;17.10;84.20;;;;;;5015262;28;20050;-45
2024/01/29 11:05:38;;;;;;;3.72;2.20;;;17.10;84.10;;;;;;5015389;28;20072;-46
2024/01/29 11:08:10;;;;;;;3.13;2.13;;;17.10;84.20;;;;;;5014855;28;20492;-45
2024/01/29 11:10:36;;;;;;;3.50;2.05;;;17.10;83.80;;;;;;5015742;28;20042;-46
2024/01/29 11:13:04;;;;;;;3.72;1.88;;;17.20;83.50;;;;;;5014865;28;20105;-46
2024/01/29 11:15:32;;;;;;;2.58;1.95;;;17.30;83.30;;;;;;5015228;28;20472;-46
2024/01/29 11:17:58;;;;;;;4.18;2.08;;;17.40;83.20;;;;;;5014397;28;20040;-46
2024/01/29 11:20:24;;;;;;;2.67;1.80;;;17.40;83.00;;;;;;5014953;28;20025;-45
2024/01/29 11:22:52;;;;;;;2.50;1.90;;;17.50;82.80;;;;;;5015026;28;20054;-46
2024/01/29 11:25:18;;;;;;;3.42;1.80;;;17.50;82.70;;;;;;5013943;28;20030;-46
2024/01/29 11:27:45;;;;;;;3.25;1.90;;;17.60;82.40;;;;;;5014419;28;20029;-46
2024/01/29 11:30:16;;;;;;;3.47;1.98;;;17.70;82.20;;;;;;5014138;28;20112;-46
2024/01/29 11:32:42;;;;;;;2.83;1.80;;;17.80;82.00;;;;;;5013999;28;20121;-45
2024/01/29 11:35:14;;;;;;;4.80;1.95;;;17.80;81.70;;;;;;5014557;28;20092;-45
2024/01/29 11:37:41;;;;;;;3.72;1.80;;;17.90;81.60;;;;;;5014136;28;20477;-46
2024/01/29 11:40:32;;;;;;;3.28;1.73;;;18.00;81.60;;;;;;5015305;28;20480;-46
2024/01/29 11:42:58;;;;;;;5.35;2.00;;;18.00;81.40;;;;;;5016175;28;20046;-46
2024/01/29 11:45:26;;;;;;;2.53;1.70;;;18.10;81.40;;;;;;5015367;28;20033;-45
2024/01/29 11:47:52;;;;;;;3.90;1.92;;;18.10;81.20;;;;;;5014101;28;20557;-46
2024/01/29 11:50:18;;;;;;;2.78;1.50;;;18.10;81.10;;;;;;5014081;28;20232;-46
2024/01/29 11:52:45;;;;;;;3.17;1.63;;;18.20;81.10;;;;;;5014524;28;20030;-46
2024/01/29 11:55:11;;;;;;;3.28;1.73;;;18.20;81.00;;;;;;5013765;28;20093;-46
2024/01/29 11:57:37;;;;;;;2.38;1.60;;;18.20;80.90;;;;;;5013789;28;20156;-46
2024/01/29 12:00:06;;;;;;;2.92;1.73;;;18.30;80.90;;;;;;5013715;28;20033;-45
2024/01/29 12:02:32;;;;;;;3.78;1.70;;;18.30;80.80;;;;;;5013946;28;20456;-46
2024/01/29 12:04:58;;;;;;;3.55;1.70;;;18.30;80.80;;;;;;5013873;28;20331;-48
2024/01/29 12:07:24;;;;;;;2.78;1.73;;;18.30;80.60;;;;;;5013619;28;20534;-46
2024/01/29 12:09:50;;;;;;;2.92;1.55;;;18.40;80.50;;;;;;5014134;28;20034;-46
2024/01/29 12:12:16;;;;;;;3.15;1.70;;;18.40;80.50;;;;;;5014302;28;20029;-46
2024/01/29 12:14:42;;;;;;;2.90;1.63;;;18.40;80.30;;;;;;5013948;28;20045;-46
2024/01/29 12:17:11;;;;;;;2.28;1.60;;;18.40;80.40;;;;;;5014348;28;20076;-46
2024/01/29 12:19:37;;;;;;;2.65;1.75;;;18.40;80.30;;;;;;5014036;28;20029;-46
2024/01/29 12:22:03;;;;;;;3.10;1.63;;;18.50;80.30;;;;;;5013897;28;20018;-46
2024/01/29 12:24:29;;;;;;;2.47;1.30;;;18.50;80.30;;;;;;5014070;28;20064;-46
2024/01/29 12:26:55;;;;;;;3.72;1.50;;;18.50;80.20;;;;;;5015001;28;20419;-46
2024/01/29 12:29:20;;;;;;;2.80;1.60;;;18.50;80.10;;;;;;5014316;28;20033;-46
2024/01/29 12:31:46;;;;;;;2.42;1.65;;;18.50;80.00;;;;;;5014050;28;20056;-45
2024/01/29 12:34:20;;;;;;;1.85;1.38;;;18.50;80.00;;;;;;5013925;28;20376;-46
2024/01/29 12:36:52;;;;;;;2.22;1.35;;;18.60;79.90;;;;;;5013794;28;20053;-45
2024/01/29 12:39:18;;;;;;;1.90;1.40;;;18.60;79.90;;;;;;5013817;28;20026;-46
2024/01/29 12:41:44;;;;;;;2.60;1.60;;;18.50;79.90;;;;;;5014140;28;20034;-45
2024/01/29 12:44:11;;;;;;;2.58;1.50;;;18.50;79.60;;;;;;5012292;28;20037;-46
2024/01/29 12:46:37;;;;;;;2.47;1.60;;;18.60;79.30;;;;;;5014114;28;20048;-45